createdAt,value
2022-11-08T00:01:39.546Z,12.37
2022-11-08T00:03:42.903Z,12.50
2022-11-08T00:06:03.969Z,12.58
2022-11-08T00:08:24.903Z,12.63
2022-11-08T00:10:45.901Z,12.62
2022-11-08T00:13:06.587Z,12.65
2022-11-08T00:15:11.272Z,12.60
2022-11-08T00:17:17.190Z,12.62
2022-11-08T00:19:20.638Z,12.61
2022-11-08T00:21:23.984Z,12.60
2022-11-08T00:23:27.277Z,12.62
2022-11-08T00:25:30.644Z,12.65
2022-11-08T00:27:34.048Z,12.65
2022-11-08T00:29:38.205Z,12.64
2022-11-08T00:31:41.552Z,12.64
2022-11-08T00:33:46.383Z,12.65
2022-11-08T00:35:49.659Z,12.66
2022-11-08T00:37:52.952Z,12.70
2022-11-08T00:39:56.273Z,12.73
2022-11-08T00:42:00.083Z,12.74
2022-11-08T00:44:03.491Z,12.64
2022-11-08T00:46:06.924Z,12.80
2022-11-08T00:48:10.338Z,12.82
2022-11-08T00:50:15.060Z,12.85
2022-11-08T00:52:18.360Z,12.88
2022-11-08T00:54:22.184Z,12.90
2022-11-08T00:56:25.816Z,12.90
2022-11-08T00:58:29.675Z,12.90
2022-11-08T01:00:33.202Z,12.87
2022-11-08T01:02:36.726Z,12.95
2022-11-08T01:04:40.124Z,12.94
2022-11-08T01:06:44.774Z,12.97
2022-11-08T01:08:49.707Z,13.01
2022-11-08T01:10:53.650Z,12.99
2022-11-08T01:12:56.983Z,13.02
2022-11-08T01:15:00.560Z,13.00
2022-11-08T01:17:03.903Z,12.98
2022-11-08T01:19:07.600Z,12.98
2022-11-08T01:21:11.972Z,12.97
2022-11-08T01:23:17.380Z,13.00
2022-11-08T01:25:20.730Z,13.02
2022-11-08T01:27:23.995Z,13.08
2022-11-08T01:29:27.322Z,13.05
2022-11-08T01:31:32.735Z,13.07
2022-11-08T01:33:36.044Z,13.07
2022-11-08T01:35:39.425Z,12.98
2022-11-08T01:37:42.731Z,13.06
2022-11-08T01:39:47.430Z,13.05
2022-11-08T01:41:51.122Z,13.08
2022-11-08T01:43:55.999Z,13.08
2022-11-08T01:46:30.794Z,13.09
2022-11-08T01:48:34.245Z,13.12
2022-11-08T01:50:37.598Z,13.10
2022-11-08T01:52:44.695Z,13.12
2022-11-08T01:54:55.410Z,13.11
2022-11-08T01:57:01.195Z,13.10
2022-11-08T01:59:09.363Z,13.08
2022-11-08T02:01:13.865Z,13.07
2022-11-08T02:03:20.143Z,13.03
2022-11-08T02:05:26.729Z,13.03
2022-11-08T02:07:31.955Z,13.03
2022-11-08T02:09:38.950Z,13.00
2022-11-08T02:11:44.453Z,13.01
2022-11-08T02:13:47.916Z,12.95
2022-11-08T02:15:51.935Z,12.97
2022-11-08T02:17:55.898Z,12.94
2022-11-08T02:19:59.243Z,12.91
2022-11-08T02:22:08.074Z,12.92
2022-11-08T02:24:14.926Z,12.89
2022-11-08T02:26:20.131Z,12.85
2022-11-08T02:28:23.435Z,12.83
2022-11-08T02:30:33.642Z,12.80
2022-11-08T02:32:40.773Z,12.71
2022-11-08T02:34:48.030Z,12.74
2022-11-08T02:36:51.591Z,12.71
2022-11-08T02:38:58.419Z,12.58
2022-11-08T02:41:03.094Z,12.65
2022-11-08T02:43:06.455Z,12.62
2022-11-08T02:45:10.460Z,12.59
2022-11-08T02:47:14.464Z,12.58
2022-11-08T02:49:17.853Z,12.53
2022-11-08T02:51:21.133Z,12.53
2022-11-08T02:53:24.604Z,12.53
2022-11-08T02:55:29.238Z,12.50
2022-11-08T02:57:33.974Z,12.50
2022-11-08T02:59:37.327Z,12.48
2022-11-08T03:01:40.861Z,12.47
2022-11-08T03:03:44.256Z,12.45
2022-11-08T03:05:47.855Z,12.34
2022-11-08T03:07:51.763Z,12.41
2022-11-08T03:09:55.161Z,12.43
2022-11-08T03:11:58.649Z,12.43
2022-11-08T03:14:03.429Z,12.29
2022-11-08T03:16:07.630Z,12.29
2022-11-08T03:18:11.197Z,12.32
2022-11-08T03:20:14.486Z,12.34
2022-11-08T03:22:17.821Z,12.27
2022-11-08T03:24:21.238Z,12.20
2022-11-08T03:26:24.542Z,12.24
2022-11-08T03:28:29.417Z,12.18
2022-11-08T03:30:35.099Z,12.11
2022-11-08T03:32:38.567Z,12.05
2022-11-08T03:34:42.253Z,12.04
2022-11-08T03:36:45.539Z,12.00
2022-11-08T03:38:48.798Z,11.87
2022-11-08T03:40:52.154Z,11.91
2022-11-08T03:42:57.211Z,11.88
2022-11-08T03:45:00.577Z,11.91
2022-11-08T03:47:05.318Z,11.89
2022-11-08T03:49:08.759Z,11.89
2022-11-08T03:51:12.068Z,11.76
2022-11-08T03:53:15.402Z,11.89
2022-11-08T03:55:21.046Z,11.80
2022-11-08T03:57:24.330Z,11.90
2022-11-08T03:59:27.647Z,11.90
2022-11-08T04:01:31.152Z,11.90
2022-11-08T04:03:35.898Z,11.91
2022-11-08T04:05:39.229Z,11.92
2022-11-08T04:07:42.948Z,12.00
2022-11-08T04:09:46.237Z,11.98
2022-11-08T04:12:06.870Z,11.97
2022-11-08T04:14:28.048Z,12.00
2022-11-08T04:16:32.371Z,12.01
2022-11-08T04:18:54.607Z,11.99
2022-11-08T04:21:18.635Z,11.90
2022-11-08T04:23:21.974Z,11.91
2022-11-08T04:25:25.266Z,11.89
2022-11-08T04:27:28.599Z,11.87
2022-11-08T04:29:32.008Z,11.84
2022-11-08T04:31:35.395Z,11.77
2022-11-08T04:33:40.250Z,11.79
2022-11-08T04:35:43.563Z,11.75
2022-11-08T04:37:46.953Z,11.69
2022-11-08T04:39:50.235Z,11.69
2022-11-08T04:41:57.722Z,11.70
2022-11-08T04:44:04.207Z,11.65
2022-11-08T04:46:09.535Z,11.61
2022-11-08T04:48:12.957Z,11.57
2022-11-08T04:50:17.842Z,11.53
2022-11-08T04:52:21.700Z,11.53
2022-11-08T04:54:24.975Z,11.54
2022-11-08T04:56:30.156Z,11.51
2022-11-08T04:58:38.137Z,11.40
2022-11-08T05:00:41.521Z,11.32
2022-11-08T05:02:44.929Z,11.36
2022-11-08T05:04:48.278Z,11.34
2022-11-08T05:06:52.964Z,11.28
2022-11-08T05:08:57.990Z,11.29
2022-11-08T05:11:02.637Z,11.30
2022-11-08T05:13:06.029Z,11.20
2022-11-08T05:15:10.156Z,11.17
2022-11-08T05:17:13.533Z,11.15
2022-11-08T05:19:37.038Z,11.19
2022-11-08T05:21:57.969Z,11.14
2022-11-08T05:24:03.522Z,11.13
2022-11-08T05:26:07.021Z,11.07
2022-11-08T05:28:10.461Z,11.12
2022-11-08T05:30:14.074Z,11.12
2022-11-08T05:32:17.442Z,11.13
2022-11-08T05:34:20.761Z,11.10
2022-11-08T05:36:24.049Z,11.10
2022-11-08T05:38:27.449Z,11.12
2022-11-08T05:40:33.500Z,11.13
2022-11-08T05:42:36.994Z,11.12
2022-11-08T05:44:40.319Z,11.11
2022-11-08T05:46:43.678Z,11.12
2022-11-08T05:48:49.701Z,11.12
2022-11-08T05:50:53.822Z,11.10
2022-11-08T05:52:59.621Z,11.14
2022-11-08T05:55:02.914Z,11.07
2022-11-08T05:57:07.610Z,11.12
2022-11-08T05:59:11.023Z,11.13
2022-11-08T06:01:16.405Z,11.13
2022-11-08T06:03:23.653Z,11.12
2022-11-08T06:05:27.382Z,11.19
2022-11-08T06:07:30.701Z,11.19
2022-11-08T06:09:34.069Z,11.15
2022-11-08T06:11:37.545Z,11.19
2022-11-08T06:13:43.091Z,11.18
2022-11-08T06:15:46.445Z,11.16
2022-11-08T06:17:49.837Z,11.20
2022-11-08T06:19:53.169Z,11.20
2022-11-08T06:21:56.538Z,11.15
2022-11-08T06:23:59.873Z,11.11
2022-11-08T06:26:03.417Z,11.11
2022-11-08T06:28:06.743Z,10.96
2022-11-08T06:30:12.490Z,11.06
2022-11-08T06:32:15.904Z,11.08
2022-11-08T06:34:19.233Z,11.14
2022-11-08T06:36:22.674Z,11.12
2022-11-08T06:38:26.294Z,11.13
2022-11-08T06:40:30.965Z,11.18
2022-11-08T06:42:34.286Z,11.24
2022-11-08T06:44:38.415Z,11.26
2022-11-08T06:46:43.117Z,11.30
2022-11-08T06:48:46.560Z,11.38
2022-11-08T06:50:49.884Z,11.45
2022-11-08T06:52:57.540Z,11.39
2022-11-08T06:55:00.895Z,11.45
2022-11-08T06:57:04.359Z,11.58
2022-11-08T06:59:07.678Z,11.64
2022-11-08T07:01:13.361Z,11.63
2022-11-08T07:03:19.059Z,11.63
2022-11-08T07:05:22.607Z,11.64
2022-11-08T07:07:25.993Z,11.63
2022-11-08T07:09:29.895Z,11.60
2022-11-08T07:11:33.196Z,11.61
2022-11-08T07:13:36.648Z,11.50
2022-11-08T07:15:40.690Z,11.69
2022-11-08T07:17:44.036Z,11.72
2022-11-08T07:19:48.832Z,11.71
2022-11-08T07:21:52.162Z,11.69
2022-11-08T07:23:55.558Z,11.71
2022-11-08T07:26:01.686Z,11.71
2022-11-08T07:28:07.444Z,11.71
2022-11-08T07:30:11.768Z,11.72
2022-11-08T07:32:15.081Z,11.68
2022-11-08T07:34:18.595Z,11.67
2022-11-08T07:36:23.567Z,11.64
2022-11-08T07:38:27.098Z,11.63
2022-11-08T07:40:30.533Z,11.71
2022-11-08T07:43:04.733Z,11.69
2022-11-08T07:45:00.757Z,11.72
2022-11-08T07:47:04.291Z,11.75
2022-11-08T07:49:07.669Z,11.71
2022-11-08T07:51:11.188Z,11.75
2022-11-08T07:53:16.369Z,11.71
2022-11-08T07:55:20.121Z,11.81
2022-11-08T07:57:23.624Z,11.80
2022-11-08T07:59:26.997Z,11.74
2022-11-08T08:01:30.426Z,11.74
2022-11-08T08:03:34.231Z,11.80
2022-11-08T08:05:40.459Z,11.82
2022-11-08T08:07:43.765Z,11.58
2022-11-08T08:09:48.505Z,12.01
2022-11-08T08:11:51.870Z,12.01
2022-11-08T08:13:56.192Z,12.20
2022-11-08T08:16:01.470Z,12.20
2022-11-08T08:18:06.857Z,12.24
2022-11-08T08:20:11.491Z,12.25
2022-11-08T08:22:14.918Z,12.32
2022-11-08T08:24:18.357Z,12.29
2022-11-08T08:26:23.096Z,12.17
2022-11-08T08:28:26.510Z,12.23
2022-11-08T08:30:31.489Z,12.21
2022-11-08T08:32:35.403Z,12.23
2022-11-08T08:34:38.737Z,12.23
2022-11-08T08:36:42.357Z,12.28
2022-11-08T08:38:45.711Z,12.30
2022-11-08T08:40:49.215Z,12.37
2022-11-08T08:42:53.943Z,12.32
2022-11-08T08:44:57.308Z,12.48
2022-11-08T08:47:00.563Z,12.39
2022-11-08T08:49:03.942Z,12.51
2022-11-08T08:51:07.607Z,12.56
2022-11-08T08:53:11.359Z,12.55
2022-11-08T08:55:14.933Z,12.68
2022-11-08T08:57:18.350Z,12.65
2022-11-08T09:01:46.365Z,12.77
2022-11-08T09:03:49.742Z,12.76
2022-11-08T09:05:53.061Z,12.77
2022-11-08T09:07:56.561Z,12.81
2022-11-08T09:10:01.028Z,12.83
2022-11-08T09:12:04.598Z,12.84
2022-11-08T09:14:07.927Z,12.88
2022-11-08T09:16:14.257Z,12.89
2022-11-08T09:18:17.819Z,12.92
2022-11-08T09:20:21.246Z,12.87
2022-11-08T09:22:24.764Z,12.87
2022-11-08T09:24:28.451Z,12.94
2022-11-08T09:26:31.803Z,12.95
2022-11-08T09:28:37.217Z,12.84
2022-11-08T09:30:40.519Z,12.92
2022-11-08T09:33:02.032Z,12.96
2022-11-08T09:35:06.337Z,12.94
2022-11-08T09:37:09.670Z,12.96
2022-11-08T09:39:13.039Z,12.91
2022-11-08T09:41:37.051Z,12.93
2022-11-08T09:43:53.708Z,12.88
2022-11-08T09:45:57.515Z,12.87
2022-11-08T09:48:05.995Z,12.88
2022-11-08T09:50:19.279Z,12.92
2022-11-08T09:52:25.757Z,12.95
2022-11-08T09:54:35.083Z,12.96
2022-11-08T09:56:39.381Z,13.00
2022-11-08T09:58:50.339Z,12.97
2022-11-08T10:00:54.132Z,13.10
2022-11-08T10:02:57.962Z,13.14
2022-11-08T10:05:06.592Z,13.14
2022-11-08T10:07:23.481Z,13.11
2022-11-08T10:09:44.850Z,13.14
2022-11-08T10:12:03.043Z,13.14
2022-11-08T10:14:20.383Z,13.19
2022-11-08T10:16:29.823Z,13.16
2022-11-08T10:18:47.520Z,13.23
2022-11-08T10:21:01.874Z,13.27
2022-11-08T10:23:21.504Z,13.29
2022-11-08T10:25:26.678Z,13.33
2022-11-08T10:27:37.711Z,13.37
2022-11-08T10:29:44.821Z,13.42
2022-11-08T10:31:49.914Z,13.26
2022-11-08T10:33:55.221Z,13.32
2022-11-08T10:36:03.052Z,13.56
2022-11-08T10:38:17.848Z,13.55
2022-11-08T10:40:29.725Z,13.69
2022-11-08T10:42:42.804Z,13.70
2022-11-08T10:44:46.848Z,13.74
2022-11-08T10:46:51.642Z,13.81
2022-11-08T10:48:57.810Z,13.88
2022-11-08T10:51:02.523Z,13.91
2022-11-08T10:53:07.612Z,13.84
2022-11-08T10:55:25.450Z,13.93
2022-11-08T10:57:39.138Z,13.99
2022-11-08T10:59:43.396Z,14.03
2022-11-08T11:01:51.682Z,14.01
2022-11-08T11:03:55.177Z,14.00
2022-11-08T11:06:04.951Z,14.07
2022-11-08T11:08:17.406Z,14.07
2022-11-08T11:10:25.867Z,14.18
2022-11-08T11:12:29.169Z,14.27
2022-11-08T11:14:32.518Z,14.37
2022-11-08T11:16:37.271Z,14.40
2022-11-08T11:18:49.650Z,14.32
2022-11-08T11:21:11.851Z,14.38
2022-11-08T11:23:15.286Z,14.52
2022-11-08T11:25:20.816Z,14.62
2022-11-08T11:27:31.366Z,14.77
2022-11-08T11:29:35.877Z,14.95
2022-11-08T11:31:41.139Z,15.05
2022-11-08T11:33:46.203Z,15.26
2022-11-08T11:35:54.401Z,15.28
2022-11-08T11:38:02.009Z,15.42
2022-11-08T11:40:17.137Z,15.28
2022-11-08T11:44:59.396Z,14.98
2022-11-08T11:47:05.863Z,14.95
2022-11-08T11:49:16.491Z,14.98
2022-11-08T11:51:20.040Z,15.01
2022-11-08T11:53:27.786Z,14.77
2022-11-08T11:55:43.646Z,15.16
2022-11-08T11:58:01.734Z,15.18
2022-11-08T12:00:09.545Z,15.22
2022-11-08T12:02:51.429Z,15.19
2022-11-08T12:05:14.276Z,15.18
2022-11-08T12:07:21.483Z,15.12
2022-11-08T12:09:42.514Z,15.02
2022-11-08T12:11:59.278Z,14.99
2022-11-08T12:14:18.629Z,14.96
2022-11-08T12:16:27.751Z,15.09
2022-11-08T12:18:47.464Z,15.08
2022-11-08T12:21:03.837Z,15.18
2022-11-08T12:23:44.578Z,15.18
2022-11-08T12:25:56.801Z,15.15
2022-11-08T12:28:09.775Z,15.17
2022-11-08T12:30:18.709Z,15.15
2022-11-08T12:32:40.152Z,15.24
2022-11-08T12:34:55.389Z,15.23
2022-11-08T12:37:12.123Z,15.31
2022-11-08T12:39:24.268Z,15.29
2022-11-08T12:41:38.958Z,15.32
2022-11-08T12:44:20.545Z,15.31
2022-11-08T12:46:23.931Z,15.10
2022-11-08T12:48:40.239Z,15.32
2022-11-08T12:50:51.377Z,15.38
2022-11-08T12:53:21.514Z,15.42
2022-11-08T12:55:26.739Z,15.50
2022-11-08T12:57:32.518Z,15.48
2022-11-08T12:59:39.619Z,15.41
2022-11-08T13:01:43.392Z,15.41
2022-11-08T13:04:05.841Z,15.38
2022-11-08T13:06:15.043Z,15.40
2022-11-08T13:08:24.816Z,15.29
2022-11-08T13:10:38.954Z,15.38
2022-11-08T13:12:54.987Z,15.42
2022-11-08T13:15:00.846Z,15.31
2022-11-08T13:17:20.071Z,15.45
2022-11-08T13:19:47.415Z,15.36
2022-11-08T13:21:51.762Z,15.47
2022-11-08T13:23:55.616Z,15.51
2022-11-08T13:26:22.475Z,15.57
2022-11-08T13:28:44.454Z,15.61
2022-11-08T13:30:50.907Z,15.65
2022-11-08T13:33:04.036Z,15.63
2022-11-08T13:35:17.376Z,15.64
2022-11-08T13:37:40.715Z,15.58
2022-11-08T13:40:04.727Z,15.56
2022-11-08T13:42:38.984Z,15.51
2022-11-08T13:45:24.620Z,15.48
2022-11-08T13:47:54.280Z,15.40
2022-11-08T13:50:31.385Z,15.35
2022-11-08T13:52:46.843Z,15.38
2022-11-08T13:54:52.867Z,15.35
2022-11-08T13:56:57.405Z,15.28
2022-11-08T13:59:00.852Z,15.27
2022-11-08T14:01:07.541Z,15.23
2022-11-08T14:03:44.141Z,15.26
2022-11-08T14:05:49.839Z,15.24
2022-11-08T14:08:17.394Z,15.23
2022-11-08T14:10:26.391Z,15.25
2022-11-08T14:12:35.275Z,15.30
2022-11-08T14:14:43.248Z,15.36
2022-11-08T14:17:01.503Z,15.49
2022-11-08T14:19:19.685Z,15.53
2022-11-08T14:21:23.562Z,15.46
2022-11-08T14:23:29.491Z,15.51
2022-11-08T14:25:36.643Z,15.50
2022-11-08T14:27:42.159Z,15.50
2022-11-08T14:29:45.542Z,15.46
2022-11-08T14:31:49.137Z,15.49
2022-11-08T14:33:54.738Z,15.45
2022-11-08T14:36:01.067Z,15.44
2022-11-08T14:38:04.587Z,15.18
2022-11-08T14:40:17.052Z,15.47
2022-11-08T14:42:24.326Z,15.51
2022-11-08T14:44:28.796Z,15.28
2022-11-08T14:46:34.941Z,15.56
2022-11-08T14:48:38.402Z,15.61
2022-11-08T14:50:43.164Z,15.66
2022-11-08T14:52:46.759Z,15.73
2022-11-08T14:55:05.588Z,15.76
2022-11-08T14:57:33.773Z,15.80
2022-11-08T14:59:37.177Z,15.92
2022-11-08T15:01:41.731Z,15.96
2022-11-08T15:03:55.351Z,15.96
2022-11-08T15:06:01.752Z,15.96
2022-11-08T15:08:09.082Z,15.98
2022-11-08T15:10:13.235Z,16.01
2022-11-08T15:12:19.333Z,16.01
2022-11-08T15:14:25.129Z,16.05
2022-11-08T15:16:29.478Z,16.10
2022-11-08T15:18:37.114Z,16.11
2022-11-08T15:20:42.363Z,16.09
2022-11-08T15:22:47.951Z,16.08
2022-11-08T15:25:01.139Z,16.08
2022-11-08T15:27:15.990Z,16.11
2022-11-08T15:29:21.360Z,16.11
2022-11-08T15:31:28.096Z,16.11
2022-11-08T15:33:36.132Z,16.13
2022-11-08T15:35:40.387Z,16.12
2022-11-08T15:37:43.934Z,16.11
2022-11-08T15:39:48.876Z,16.12
2022-11-08T15:42:03.487Z,16.13
2022-11-08T15:44:20.355Z,16.17
2022-11-08T15:46:29.453Z,16.17
2022-11-08T15:48:33.381Z,16.21
2022-11-08T15:50:36.683Z,16.19
2022-11-08T15:52:40.042Z,16.19
2022-11-08T15:54:43.354Z,16.08
2022-11-08T15:56:49.236Z,16.17
2022-11-08T15:58:52.564Z,16.17
2022-11-08T16:00:56.677Z,16.18
2022-11-08T16:03:00.515Z,16.15
2022-11-08T16:05:14.780Z,16.17
2022-11-08T16:07:18.225Z,16.15
2022-11-08T16:09:21.682Z,16.12
2022-11-08T16:11:25.409Z,16.13
2022-11-08T16:13:32.923Z,16.10
2022-11-08T16:15:36.904Z,16.09
2022-11-08T16:17:40.480Z,16.12
2022-11-08T16:19:43.766Z,16.09
2022-11-08T16:21:47.624Z,16.09
2022-11-08T16:23:51.007Z,16.07
2022-11-08T16:25:56.076Z,16.09
2022-11-08T16:28:08.321Z,16.10
2022-11-08T16:30:17.821Z,16.12
2022-11-08T16:32:21.171Z,16.10
2022-11-08T16:34:24.640Z,16.11
2022-11-08T16:36:28.648Z,16.13
2022-11-08T16:38:35.667Z,16.10
2022-11-08T16:40:41.159Z,16.08
2022-11-08T16:42:45.804Z,16.10
2022-11-08T16:44:49.183Z,16.09
2022-11-08T16:46:55.021Z,16.12
2022-11-08T16:48:59.968Z,16.11
2022-11-08T16:51:05.511Z,16.10
2022-11-08T16:53:16.171Z,16.08
2022-11-08T16:55:21.233Z,16.05
2022-11-08T16:57:39.838Z,16.08
2022-11-08T16:59:43.259Z,16.11
2022-11-08T17:01:48.748Z,16.09
2022-11-08T17:03:53.492Z,16.15
2022-11-08T17:05:56.814Z,16.14
2022-11-08T17:08:00.180Z,16.17
2022-11-08T17:10:03.462Z,16.17
2022-11-08T17:12:07.090Z,16.13
2022-11-08T17:14:13.150Z,16.12
2022-11-08T17:16:18.619Z,16.13
2022-11-08T17:18:22.616Z,16.11
2022-11-08T17:20:27.874Z,16.14
2022-11-08T17:22:31.220Z,16.17
2022-11-08T17:24:34.626Z,16.19
2022-11-08T17:26:37.952Z,16.15
2022-11-08T17:28:41.941Z,16.13
2022-11-08T17:30:45.335Z,16.13
2022-11-08T17:32:48.601Z,16.13
2022-11-08T17:34:51.902Z,16.12
2022-11-08T17:36:56.535Z,16.11
2022-11-08T17:38:59.869Z,16.10
2022-11-08T17:41:04.352Z,16.12
2022-11-08T17:43:07.698Z,16.08
2022-11-08T17:45:13.854Z,15.94
2022-11-08T17:47:18.335Z,15.96
2022-11-08T17:49:22.351Z,15.98
2022-11-08T17:51:25.720Z,15.93
2022-11-08T17:53:30.752Z,15.96
2022-11-08T17:55:34.163Z,15.97
2022-11-08T17:57:37.619Z,16.02
2022-11-08T17:59:40.943Z,16.06
2022-11-08T18:01:44.398Z,16.04
2022-11-08T18:03:47.777Z,16.05
2022-11-08T18:05:55.324Z,16.01
2022-11-08T18:07:58.771Z,16.07
2022-11-08T18:10:03.943Z,16.05
2022-11-08T18:12:08.087Z,16.03
2022-11-08T18:14:11.458Z,16.05
2022-11-08T18:16:17.268Z,16.10
2022-11-08T18:18:21.501Z,16.09
2022-11-08T18:20:24.790Z,16.10
2022-11-08T18:22:28.680Z,16.09
2022-11-08T18:24:32.000Z,16.09
2022-11-08T18:26:36.753Z,16.00
2022-11-08T18:28:41.190Z,16.05
2022-11-08T18:30:47.732Z,16.09
2022-11-08T18:32:51.715Z,16.10
2022-11-08T18:34:55.111Z,16.06
2022-11-08T18:36:58.530Z,16.07
2022-11-08T18:39:02.571Z,16.07
2022-11-08T18:41:06.397Z,16.00
2022-11-08T18:43:11.111Z,16.08
2022-11-08T18:45:14.467Z,16.10
2022-11-08T18:47:17.924Z,16.12
2022-11-08T18:49:21.422Z,16.11
2022-11-08T18:51:24.811Z,16.07
2022-11-08T18:53:28.220Z,16.11
2022-11-08T18:55:32.159Z,16.13
2022-11-08T18:57:37.298Z,16.08
2022-11-08T18:59:42.224Z,16.08
2022-11-08T19:01:45.783Z,16.08
2022-11-08T19:03:49.356Z,16.07
2022-11-08T19:05:52.891Z,16.06
2022-11-08T19:07:56.248Z,16.08
2022-11-08T19:09:59.538Z,16.08
2022-11-08T19:12:05.902Z,16.10
2022-11-08T19:14:09.586Z,16.12
2022-11-08T19:16:16.380Z,16.10
2022-11-08T19:18:19.701Z,16.11
2022-11-08T19:20:23.986Z,16.12
2022-11-08T19:22:27.374Z,16.09
2022-11-08T19:24:30.801Z,16.12
2022-11-08T19:26:34.241Z,16.14
2022-11-08T19:28:39.752Z,16.06
2022-11-08T19:30:49.542Z,16.06
2022-11-08T19:32:54.278Z,16.08
2022-11-08T19:34:57.594Z,16.05
2022-11-08T19:37:01.066Z,16.04
2022-11-08T19:39:04.608Z,16.02
2022-11-08T19:41:09.785Z,16.04
2022-11-08T19:43:13.271Z,16.00
2022-11-08T19:45:16.774Z,16.03
2022-11-08T19:47:20.169Z,16.06
2022-11-08T19:49:27.911Z,16.01
2022-11-08T19:51:32.789Z,16.01
2022-11-08T19:53:36.220Z,16.00
2022-11-08T19:55:39.525Z,15.99
2022-11-08T19:57:43.061Z,16.00
2022-11-08T19:59:46.401Z,15.99
2022-11-08T20:01:49.884Z,15.92
2022-11-08T20:03:53.332Z,15.87
2022-11-08T20:05:58.076Z,15.80
2022-11-08T20:08:05.953Z,15.77
2022-11-08T20:10:10.236Z,15.77
2022-11-08T20:12:13.571Z,15.75
2022-11-08T20:14:16.994Z,15.51
2022-11-08T20:16:23.516Z,15.70
2022-11-08T20:18:26.963Z,15.69
2022-11-08T20:20:30.733Z,15.63
2022-11-08T20:22:35.503Z,15.69
2022-11-08T20:24:38.935Z,15.69
2022-11-08T20:26:42.690Z,15.73
2022-11-08T20:28:55.242Z,15.76
2022-11-08T20:31:03.398Z,15.80
2022-11-08T20:33:06.726Z,15.79
2022-11-08T20:35:10.898Z,15.73
2022-11-08T20:37:14.669Z,15.79
2022-11-08T20:39:19.446Z,15.77
2022-11-08T20:41:23.027Z,15.76
2022-11-08T20:43:26.374Z,15.79
2022-11-08T20:45:29.734Z,15.77
2022-11-08T20:47:33.214Z,15.74
2022-11-08T20:49:36.576Z,15.66
2022-11-08T20:51:39.881Z,15.76
2022-11-08T20:53:43.444Z,15.59
2022-11-08T20:55:56.011Z,15.79
2022-11-08T20:57:59.367Z,15.73
2022-11-08T21:00:13.180Z,15.71
2022-11-08T21:02:17.142Z,15.71
2022-11-08T21:04:20.731Z,15.77
2022-11-08T21:06:26.397Z,15.77
2022-11-08T21:10:57.825Z,15.77
2022-11-08T21:13:01.850Z,15.77
2022-11-08T21:15:05.735Z,15.75
2022-11-08T21:17:22.013Z,15.74
2022-11-08T21:19:26.301Z,15.74
2022-11-08T21:21:29.750Z,15.79
2022-11-08T21:23:33.547Z,15.78
2022-11-08T21:25:36.903Z,15.78
2022-11-08T21:27:41.617Z,15.81
2022-11-08T21:29:44.940Z,15.78
2022-11-08T21:31:48.267Z,15.75
2022-11-08T21:33:51.643Z,15.74
2022-11-08T21:35:57.082Z,15.77
2022-11-08T21:38:00.600Z,15.76
2022-11-08T21:40:04.013Z,15.77
2022-11-08T21:42:07.350Z,15.76
2022-11-08T21:44:12.043Z,15.76
2022-11-08T21:46:17.379Z,15.78
2022-11-08T21:48:21.027Z,15.78
2022-11-08T21:50:24.744Z,15.77
2022-11-08T21:52:28.130Z,15.72
2022-11-08T21:54:31.475Z,15.75
2022-11-08T21:56:35.674Z,15.72
2022-11-08T21:58:39.090Z,15.61
2022-11-08T22:00:43.779Z,15.70
2022-11-08T22:02:47.086Z,15.71
2022-11-08T22:04:50.535Z,15.64
2022-11-08T22:06:53.932Z,15.67
2022-11-08T22:08:57.496Z,15.67
2022-11-08T22:11:00.837Z,15.60
2022-11-08T22:13:04.203Z,15.57
2022-11-08T22:15:09.319Z,15.54
2022-11-08T22:17:13.940Z,15.57
2022-11-08T22:19:17.295Z,15.54
2022-11-08T22:21:39.329Z,15.54
2022-11-08T22:23:43.058Z,15.50
2022-11-08T22:25:46.342Z,15.53
2022-11-08T22:27:49.725Z,15.51
2022-11-08T22:29:53.039Z,15.51
2022-11-08T22:31:56.467Z,15.56
2022-11-08T22:34:01.752Z,15.40
2022-11-08T22:36:05.183Z,15.49
2022-11-08T22:38:09.622Z,15.53
2022-11-08T22:40:13.483Z,15.52
2022-11-08T22:42:17.066Z,15.44
2022-11-08T22:44:20.716Z,15.45
2022-11-08T22:46:24.714Z,15.50
2022-11-08T22:48:28.262Z,15.51
2022-11-08T22:50:32.981Z,15.52
2022-11-08T22:52:36.361Z,15.47
2022-11-08T22:54:39.673Z,15.41
2022-11-08T22:56:43.209Z,15.47
2022-11-08T22:58:46.574Z,15.48
2022-11-08T23:00:51.054Z,15.47
2022-11-08T23:02:54.541Z,15.44
2022-11-08T23:04:57.894Z,15.42
2022-11-08T23:07:02.670Z,15.43
2022-11-08T23:09:06.543Z,15.42
2022-11-08T23:11:27.948Z,15.44
2022-11-08T23:13:48.890Z,15.43
2022-11-08T23:16:09.968Z,15.38
2022-11-08T23:18:13.279Z,15.39
2022-11-08T23:20:33.923Z,15.38
2022-11-08T23:22:56.230Z,15.36
2022-11-08T23:24:59.906Z,15.40
2022-11-08T23:27:22.401Z,15.41
2022-11-08T23:29:43.413Z,15.35
2022-11-08T23:31:46.768Z,15.41
2022-11-08T23:33:50.122Z,15.40
2022-11-08T23:36:15.490Z,15.38
2022-11-08T23:38:22.498Z,15.34
2022-11-08T23:40:43.669Z,15.31
2022-11-08T23:43:04.706Z,15.28
2022-11-08T23:45:09.407Z,15.32
2022-11-08T23:47:13.014Z,15.33
2022-11-08T23:49:16.448Z,15.31
2022-11-08T23:51:19.766Z,15.27
2022-11-08T23:53:25.881Z,15.29
2022-11-08T23:55:29.172Z,15.24
2022-11-08T23:57:33.029Z,15.13
2022-11-08T23:59:36.339Z,15.26
